Time;durP1;ratioP1;P1;durP2;ratioP2;P2;SDS_P1;SDS_P2;PMS_P1;PMS_P2;Temp;Humidity;BMP_temperature;BMP_pressure;BME280_temperature;BME280_humidity;BME280_pressure;Samples;Min_cycle;Max_cycle;Signal;HPM_P1;HPM_P2
2023/03/24 00:02:19;;;;;;;;;1.33;1.00;;;;;21.44;23.09;99588.31;5056387;28;45558;-76
2023/03/24 00:04:51;;;;;;;;;1.00;1.00;;;;;21.44;22.35;99587.44;5056531;28;45466;-76
2023/03/24 00:07:18;;;;;;;;;1.00;1.00;;;;;21.40;22.63;99580.44;5063735;28;45422;-77
2023/03/24 00:09:44;;;;;;;;;1.00;1.00;;;;;21.39;22.34;99579.59;5060397;28;45359;-77
2023/03/24 00:12:12;;;;;;;;;0.00;0.00;;;;;21.41;22.01;99584.88;5056081;28;45469;-78
2023/03/24 00:14:39;;;;;;;;;0.00;0.00;;;;;21.42;22.11;99594.56;5056228;28;45497;-73
2023/03/24 00:17:08;;;;;;;;;1.00;1.00;;;;;21.39;21.68;99590.22;5056211;28;45586;-75
2023/03/24 00:19:37;;;;;;;;;1.00;1.00;;;;;21.41;21.69;99592.84;5054000;28;45366;-74
2023/03/24 00:22:07;;;;;;;;;0.00;0.00;;;;;21.40;21.99;99591.94;5056037;28;45511;-72
2023/03/24 00:24:33;;;;;;;;;0.33;0.33;;;;;21.39;22.05;99602.63;5053458;28;45532;-71
2023/03/24 00:26:59;;;;;;;;;0.00;0.00;;;;;21.33;21.86;99594.81;5056010;28;45473;-71
2023/03/24 00:29:25;;;;;;;;;1.33;1.00;;;;;21.31;22.14;99608.16;5054650;28;45420;-70
2023/03/24 00:31:52;;;;;;;;;1.00;1.00;;;;;21.21;22.46;99598.72;5052832;28;46058;-70
2023/03/24 00:34:22;;;;;;;;;0.67;0.00;;;;;21.28;22.07;99613.56;5055862;28;45560;-73
2023/03/24 00:36:52;;;;;;;;;1.00;1.00;;;;;21.24;22.37;99617.22;5053748;28;45371;-71
2023/03/24 00:39:19;;;;;;;;;0.00;0.00;;;;;21.22;22.02;99603.13;5056256;28;45514;-71
2023/03/24 00:41:46;;;;;;;;;0.00;0.00;;;;;21.21;21.82;99617.31;5054501;28;46351;-72
2023/03/24 00:44:16;;;;;;;;;0.00;0.00;;;;;21.19;22.09;99616.50;5053074;28;45339;-72
2023/03/24 00:46:54;;;;;;;;;0.00;0.00;;;;;21.18;21.79;99620.06;5055811;28;45523;-71
2023/03/24 00:49:40;;;;;;;;;0.00;0.00;;;;;21.15;21.76;99623.69;5054431;28;45542;-71
2023/03/24 00:52:10;;;;;;;;;0.00;0.00;;;;;21.10;21.86;99620.25;5053481;28;48045;-71
2023/03/24 00:54:37;;;;;;;;;0.00;0.00;;;;;21.06;21.81;99629.22;5037313;28;46667;-75
2023/03/24 00:57:03;;;;;;;;;0.00;0.00;;;;;21.08;22.05;99640.69;5055313;28;45537;-74
2023/03/24 00:59:30;;;;;;;;;0.00;0.00;;;;;21.04;22.31;99634.56;5055363;28;45449;-73
2023/03/24 01:01:56;;;;;;;;;0.00;0.00;;;;;20.94;22.35;99619.81;5055394;28;46124;-76
2023/03/24 01:04:25;;;;;;;;;0.00;0.00;;;;;20.99;22.69;99622.34;5055483;28;45859;-76
2023/03/24 01:06:53;;;;;;;;;0.00;0.00;;;;;20.98;22.72;99634.75;5055534;28;45758;-77
2023/03/24 01:09:20;;;;;;;;;0.00;0.00;;;;;20.98;22.84;99645.38;5056099;28;45432;-78
2023/03/24 01:11:46;;;;;;;;;0.00;0.00;;;;;20.95;23.38;99645.47;5055285;28;46236;-75
2023/03/24 01:14:13;;;;;;;;;0.00;0.00;;;;;20.84;23.20;99629.81;5055354;28;45682;-76
2023/03/24 01:16:40;;;;;;;;;0.00;0.00;;;;;20.87;23.58;99644.81;5055544;28;45604;-78
2023/03/24 01:19:08;;;;;;;;;0.00;0.00;;;;;20.75;23.74;99640.69;5055534;28;45831;-77
2023/03/24 01:21:35;;;;;;;;;0.00;0.00;;;;;20.76;23.99;99647.72;5055066;28;45531;-72
2023/03/24 01:24:03;;;;;;;;;0.00;0.00;;;;;20.74;23.99;99646.91;5054985;28;45459;-75
2023/03/24 01:26:29;;;;;;;;;0.00;0.00;;;;;20.65;24.23;99645.38;5060103;28;45507;-71
2023/03/24 01:28:55;;;;;;;;;0.00;0.00;;;;;20.67;24.38;99653.25;5055664;28;45348;-73
2023/03/24 01:31:21;;;;;;;;;0.00;0.00;;;;;20.58;24.35;99637.56;5054926;28;45346;-71
2023/03/24 01:33:46;;;;;;;;;0.00;0.00;;;;;20.63;24.42;99655.16;5055198;28;45689;-73
2023/03/24 01:36:12;;;;;;;;;0.00;0.00;;;;;20.59;24.66;99653.50;5055258;28;45403;-75
2023/03/24 01:38:38;;;;;;;;;0.00;0.00;;;;;20.62;24.85;99657.84;5055188;28;45434;-73
2023/03/24 01:41:05;;;;;;;;;0.00;0.00;;;;;20.61;25.02;99656.97;5052382;28;45855;-71
2023/03/24 01:43:33;;;;;;;;;0.00;0.00;;;;;20.60;25.63;99662.31;5054832;28;45542;-76
2023/03/24 01:46:07;;;;;;;;;0.00;0.00;;;;;20.61;25.77;99653.41;5054964;28;45443;-75
2023/03/24 01:48:49;;;;;;;;;0.33;0.00;;;;;20.62;26.10;99661.34;5056877;28;45520;-74
2023/03/24 01:51:37;;;;;;;;;0.00;0.00;;;;;20.52;26.57;99641.25;5057384;28;46026;-73
2023/03/24 01:54:26;;;;;;;;;0.00;0.00;;;;;20.58;27.37;99648.19;5057761;28;45409;-73
2023/03/24 01:57:10;;;;;;;;;0.00;0.00;;;;;20.57;27.63;99646.41;5056829;28;45426;-78
2023/03/24 01:59:40;;;;;;;;;0.00;0.00;;;;;20.59;28.03;99661.44;5064794;28;45426;-77
2023/03/24 02:02:08;;;;;;;;;0.00;0.00;;;;;20.54;28.90;99658.00;5055714;28;46131;-76
2023/03/24 02:04:42;;;;;;;;;0.00;0.00;;;;;20.54;29.01;99673.03;5058382;28;45316;-78
2023/03/24 02:07:15;;;;;;;;;0.00;0.00;;;;;20.51;29.51;99675.75;5055871;28;45371;-77
2023/03/24 02:09:40;;;;;;;;;0.00;0.00;;;;;20.46;30.09;99674.09;5058232;28;45426;-78
2023/03/24 02:12:06;;;;;;;;;0.00;0.00;;;;;20.46;30.09;99673.22;5057959;28;45972;-77
2023/03/24 02:14:32;;;;;;;;;0.00;0.00;;;;;20.46;30.92;99671.44;5058182;28;45426;-77
2023/03/24 02:17:07;;;;;;;;;0.00;0.00;;;;;20.46;31.77;99678.53;5058021;28;45473;-76
2023/03/24 02:20:10;;;;;;;;;0.00;0.00;;;;;20.45;32.28;99680.31;5056796;28;45657;-77
2023/03/24 02:22:41;;;;;;;;;0.00;0.00;;;;;20.46;32.25;99690.00;5056838;28;45366;-78
2023/03/24 02:25:25;;;;;;;;;1.00;0.00;;;;;20.43;32.49;99689.22;5055784;28;45461;-78
2023/03/24 02:28:27;;;;;;;;;0.00;0.00;;;;;20.39;32.96;99679.59;5056340;28;45383;-77
2023/03/24 02:31:11;;;;;;;;;0.67;0.00;;;;;20.43;33.16;99687.44;5056562;28;45304;-78
2023/03/24 02:33:42;;;;;;;;;0.00;0.00;;;;;20.40;33.63;99697.25;5056726;28;45538;-78
2023/03/24 02:36:08;;;;;;;;;0.00;0.00;;;;;20.34;33.70;99695.63;5055297;28;45520;-76
2023/03/24 02:39:04;;;;;;;;;0.00;0.00;;;;;20.27;34.13;99694.91;5058578;28;45655;-77
2023/03/24 02:41:40;;;;;;;;;0.00;0.00;;;;;20.20;34.51;99701.25;5056198;28;45396;-75
2023/03/24 02:44:25;;;;;;;;;0.00;0.00;;;;;20.14;34.58;99700.53;5037132;28;45428;-77
2023/03/24 02:47:07;;;;;;;;;0.00;0.00;;;;;20.12;34.97;99708.50;5055481;28;45602;-74
2023/03/24 02:49:40;;;;;;;;;1.00;0.00;;;;;20.10;34.97;99712.09;5055925;28;45426;-78
2023/03/24 02:52:35;;;;;;;;;0.00;0.00;;;;;20.09;35.33;99715.66;5055087;28;45562;-75
2023/03/24 02:55:08;;;;;;;;;0.00;0.00;;;;;20.08;35.39;99716.56;5056615;28;45393;-78
2023/03/24 02:57:42;;;;;;;;;0.00;0.00;;;;;20.08;35.28;99735.13;5057179;28;45453;-78
2023/03/24 03:00:23;;;;;;;;;1.00;0.00;;;;;20.02;35.44;99734.34;5054155;28;45474;-75
2023/03/24 03:02:56;;;;;;;;;0.00;0.00;;;;;19.97;36.02;99744.16;5055425;28;45433;-76
2023/03/24 03:05:31;;;;;;;;;0.00;0.00;;;;;19.95;35.76;99753.94;5058560;28;46275;-76
2023/03/24 03:08:00;;;;;;;;;0.00;0.00;;;;;19.89;36.64;99754.06;5053972;28;45501;-76
2023/03/24 03:10:37;;;;;;;;;1.00;0.00;;;;;19.88;36.21;99764.72;5038821;28;45383;-73
2023/03/24 03:13:10;;;;;;;;;0.67;0.67;;;;;19.62;39.46;99774.91;5038624;28;45344;-77
2023/03/24 03:15:44;;;;;;;;;1.00;0.00;;;;;19.38;39.96;99778.03;5038363;28;47106;-77
2023/03/24 03:18:28;;;;;;;;;1.00;1.00;;;;;19.34;40.58;99789.53;5038563;28;45526;-77
2023/03/24 03:21:00;;;;;;;;;1.00;1.00;;;;;19.28;41.10;99796.72;5038725;28;45606;-73
2023/03/24 03:23:36;;;;;;;;;0.67;0.67;;;;;19.15;41.68;99787.22;5038735;28;45367;-71
2023/03/24 03:26:06;;;;;;;;;1.00;1.00;;;;;19.02;41.21;99775.97;5038236;28;45932;-72
2023/03/24 03:28:38;;;;;;;;;1.00;1.00;;;;;19.03;41.56;99792.72;5056585;28;45624;-72
2023/03/24 03:31:13;;;;;;;;;1.00;1.00;;;;;18.89;41.99;99787.66;5078679;28;45537;-72
2023/03/24 03:33:52;;;;;;;;;1.00;1.00;;;;;18.85;41.94;99783.31;5078877;28;45407;-71
2023/03/24 03:36:31;;;;;;;;;0.67;0.67;;;;;18.74;42.35;99779.94;5077496;27;46386;-71
2023/03/24 03:39:27;;;;;;;;;1.67;1.00;;;;;18.64;42.16;99781.84;5078492;28;45543;-71
2023/03/24 03:41:54;;;;;;;;;0.33;0.33;;;;;18.57;42.15;99790.78;5078677;28;45280;-71
2023/03/24 03:44:20;;;;;;;;;0.67;0.67;;;;;18.48;43.00;99808.53;5078991;28;45504;-73
2023/03/24 03:46:45;;;;;;;;;1.67;0.67;;;;;18.37;43.81;99806.94;5060031;28;45607;-73
2023/03/24 03:49:11;;;;;;;;;0.67;0.33;;;;;18.31;43.72;99804.38;5078520;28;45433;-72
2023/03/24 03:51:37;;;;;;;;;2.33;0.67;;;;;18.27;43.87;99822.06;5078805;28;45771;-74
2023/03/24 03:54:06;;;;;;;;;1.33;1.33;;;;;18.12;44.38;99819.59;5078486;28;45340;-72
2023/03/24 03:56:34;;;;;;;;;3.33;1.00;;;;;18.12;44.87;99838.97;5078271;28;45616;-76
2023/03/24 03:59:01;;;;;;;;;2.00;1.33;;;;;18.02;44.70;99839.97;5078259;28;45743;-75
2023/03/24 04:01:30;;;;;;;;;2.00;1.67;;;;;17.98;45.00;99847.06;5078466;28;45306;-77
2023/03/24 04:03:56;;;;;;;;;1.67;1.33;;;;;17.89;45.33;99837.47;5078493;28;45331;-77
2023/03/24 04:06:32;;;;;;;;;1.67;1.67;;;;;17.86;45.74;99842.78;5076955;28;45660;-74
2023/03/24 04:09:15;;;;;;;;;6.00;5.00;;;;;17.83;45.49;99841.94;5058179;28;45418;-75
2023/03/24 04:11:49;;;;;;;;;2.67;2.67;;;;;17.82;45.70;99863.94;5056663;28;45376;-74
2023/03/24 04:14:48;;;;;;;;;3.33;1.67;;;;;17.81;45.94;99871.00;5057677;28;45501;-75
2023/03/24 04:17:17;;;;;;;;;2.67;2.00;;;;;17.77;46.37;99894.84;5057727;28;46001;-72
2023/03/24 04:19:59;;;;;;;;;3.00;3.00;;;;;17.70;48.02;99899.28;5057714;28;45190;-77
2023/03/24 04:22:39;;;;;;;;;3.00;2.00;;;;;17.69;47.50;99903.69;5057715;28;45597;-74
2023/03/24 04:25:18;;;;;;;;;3.00;2.33;;;;;17.66;48.22;99911.63;5057870;28;45299;-78
2023/03/24 04:28:02;;;;;;;;;3.00;3.00;;;;;17.68;48.36;99932.75;5057563;28;46262;-75
2023/03/24 04:30:42;;;;;;;;;7.00;4.00;;;;;17.66;49.13;99948.63;5057565;28;45351;-78
2023/03/24 04:33:27;;;;;;;;;7.00;4.00;;;;;17.64;49.29;99942.47;5057762;28;45375;-74
2023/03/24 04:36:06;;;;;;;;;6.67;4.00;;;;;17.69;51.42;99947.72;5058029;28;45208;-70
2023/03/24 04:38:35;;;;;;;;;4.00;3.67;;;;;17.63;50.84;99934.59;5075316;28;46294;-70
2023/03/24 04:41:02;;;;;;;;;8.00;5.00;;;;;17.63;51.55;99951.31;5077851;28;46163;-71
2023/03/24 04:43:35;;;;;;;;;7.75;6.00;;;;;17.61;51.56;99961.00;5077654;28;45338;-74
2023/03/24 04:46:03;;;;;;;;;5.00;5.00;;;;;17.58;51.72;99957.50;5077986;28;46100;-70
2023/03/24 04:48:29;;;;;;;;;5.00;4.00;;;;;17.52;51.82;99953.13;5077444;28;46085;-70
2023/03/24 04:50:59;;;;;;;;;4.33;3.67;;;;;17.54;53.25;99955.78;5077769;28;45497;-71
2023/03/24 04:53:26;;;;;;;;;7.33;4.00;;;;;17.42;53.35;99962.91;5077587;28;45492;-72
2023/03/24 04:56:03;;;;;;;;;7.67;6.00;;;;;17.35;53.61;99966.50;5077889;28;45306;-74
2023/03/24 04:58:29;;;;;;;;;5.33;4.00;;;;;17.33;53.54;99984.09;5077212;28;46073;-71
2023/03/24 05:00:55;;;;;;;;;2.50;2.50;;;;;17.18;55.05;99979.78;5077672;28;45559;-74
2023/03/24 05:03:21;;;;;;;;;5.67;4.00;;;;;17.16;54.53;99992.09;5077679;28;45737;-74
2023/03/24 05:05:49;;;;;;;;;5.67;5.00;;;;;17.16;55.37;100009.72;5068859;28;45407;-75
2023/03/24 05:08:16;;;;;;;;;8.00;6.00;;;;;17.19;56.22;100007.94;5055990;28;45633;-73
2023/03/24 05:10:42;;;;;;;;;5.33;4.00;;;;;17.16;55.41;100017.63;5056566;28;45477;-74
2023/03/24 05:13:08;;;;;;;;;6.75;4.75;;;;;17.14;55.99;100007.06;5056203;28;45565;-72
2023/03/24 05:15:35;;;;;;;;;7.25;4.75;;;;;17.14;57.06;100007.06;5056479;28;45488;-70
2023/03/24 05:18:02;;;;;;;;;7.75;6.50;;;;;17.03;57.45;100008.88;5054852;28;46074;-73
2023/03/24 05:20:28;;;;;;;;;7.25;5.00;;;;;16.96;57.46;100015.97;5054941;28;45390;-70
2023/03/24 05:22:54;;;;;;;;;5.00;4.00;;;;;16.96;57.10;100021.25;5056311;28;45377;-76
2023/03/24 05:25:20;;;;;;;;;5.75;5.00;;;;;17.00;57.22;100032.66;5058997;28;45324;-74
2023/03/24 05:27:46;;;;;;;;;6.00;5.00;;;;;17.04;57.33;100039.69;5058728;28;45407;-73
2023/03/24 05:30:13;;;;;;;;;7.00;5.25;;;;;17.02;58.15;100039.69;5058856;28;45503;-71
2023/03/24 05:32:39;;;;;;;;;8.00;6.50;;;;;17.04;59.06;100044.97;5058609;28;45522;-72
2023/03/24 05:35:05;;;;;;;;;10.50;6.75;;;;;17.03;58.22;100045.84;5058772;28;45485;-70
2023/03/24 05:37:31;;;;;;;;;5.00;5.00;;;;;16.98;56.75;100045.00;5069393;28;46112;-70
2023/03/24 05:39:56;;;;;;;;;6.00;5.00;;;;;17.02;57.35;100052.00;5061077;28;45968;-71
2023/03/24 05:42:22;;;;;;;;;8.50;6.25;;;;;16.93;59.15;100054.66;5058939;28;45442;-73
2023/03/24 05:44:48;;;;;;;;;8.00;7.00;;;;;16.88;58.94;100058.22;5058509;28;45493;-70
2023/03/24 05:47:15;;;;;;;;;5.00;4.00;;;;;16.94;59.07;100070.50;5058477;28;46199;-73
2023/03/24 05:49:44;;;;;;;;;7.00;4.50;;;;;16.99;59.04;100068.75;5058453;28;45473;-72
2023/03/24 05:52:11;;;;;;;;;5.25;4.00;;;;;16.92;58.88;100058.22;5058484;28;45430;-72
2023/03/24 05:54:38;;;;;;;;;4.00;3.00;;;;;17.02;59.15;100068.72;5058610;28;45435;-70
2023/03/24 05:57:08;;;;;;;;;2.00;1.33;;;;;16.86;61.45;100077.56;5058175;28;45369;-73
2023/03/24 05:59:34;;;;;;;;;2.67;1.33;;;;;16.80;61.86;100074.91;5037768;28;45411;-72
2023/03/24 06:02:00;;;;;;;;;2.00;2.00;;;;;16.77;61.13;100074.91;5071393;28;45445;-72
2023/03/24 06:04:29;;;;;;;;;2.25;2.00;;;;;16.61;62.80;100071.44;5058643;28;45560;-71
2023/03/24 06:06:57;;;;;;;;;3.00;3.00;;;;;16.67;62.31;100077.59;5058534;28;46108;-74
2023/03/24 06:09:25;;;;;;;;;3.00;2.00;;;;;16.70;62.94;100084.63;5058419;28;45489;-77
2023/03/24 06:11:50;;;;;;;;;3.00;3.00;;;;;16.66;61.75;100082.88;5055637;28;45485;-79
2023/03/24 06:14:16;;;;;;;;;3.00;3.00;;;;;16.52;62.70;100084.66;5040168;28;45478;-75
2023/03/24 06:16:41;;;;;;;;;2.00;2.00;;;;;16.41;62.51;100080.28;5058168;28;45455;-72
2023/03/24 06:19:07;;;;;;;;;1.00;1.00;;;;;16.57;61.77;100103.97;5057944;28;45371;-71
2023/03/24 06:21:34;;;;;;;;;1.00;0.33;;;;;16.60;61.22;100090.78;5058237;28;45514;-72
2023/03/24 06:24:00;;;;;;;;;8.25;5.50;;;;;16.61;61.06;100097.81;5057964;28;45435;-77
2023/03/24 06:26:29;;;;;;;;;1.33;1.33;;;;;16.55;60.50;100113.66;5057999;28;45433;-73
2023/03/24 06:28:55;;;;;;;;;0.00;0.00;;;;;16.53;60.43;100112.78;5058291;28;45629;-78
2023/03/24 06:31:21;;;;;;;;;0.00;0.00;;;;;16.53;60.20;100112.78;5057923;28;45554;-77
2023/03/24 06:33:47;;;;;;;;;0.33;0.33;;;;;16.49;60.53;100115.44;5057920;28;45516;-76
2023/03/24 06:36:13;;;;;;;;;2.00;1.00;;;;;16.46;60.28;100125.09;5056890;28;45505;-78
2023/03/24 06:38:40;;;;;;;;;0.00;0.00;;;;;16.36;59.95;100118.94;5057585;28;45516;-78
2023/03/24 06:41:07;;;;;;;;;0.00;0.00;;;;;16.40;60.32;100125.09;5057476;28;45494;-72
2023/03/24 06:43:32;;;;;;;;;0.00;0.00;;;;;16.24;60.24;100126.88;5058036;28;45371;-78
2023/03/24 06:45:59;;;;;;;;;0.00;0.00;;;;;16.24;60.05;100129.50;5058593;28;46019;-70
2023/03/24 06:48:26;;;;;;;;;0.00;0.00;;;;;16.25;60.11;100145.31;5059618;28;45307;-71
2023/03/24 06:50:52;;;;;;;;;1.00;0.00;;;;;16.18;60.26;100140.91;5058990;28;45478;-71
2023/03/24 06:53:20;;;;;;;;;0.00;0.00;;;;;16.24;60.05;100162.00;5059935;28;45481;-75
2023/03/24 06:55:49;;;;;;;;;1.00;1.00;;;;;16.23;59.45;100154.94;5059046;28;45492;-70
2023/03/24 06:58:16;;;;;;;;;0.00;0.00;;;;;16.21;59.98;100161.09;5059153;28;45324;-71
2023/03/24 07:00:43;;;;;;;;;1.33;0.67;;;;;16.04;59.99;100156.72;5058793;28;45566;-70
2023/03/24 07:03:09;;;;;;;;;2.00;0.00;;;;;16.22;59.43;100176.06;5041099;28;45516;-73
2023/03/24 07:05:38;;;;;;;;;5.00;4.50;;;;;16.18;59.54;100172.53;5058182;28;45510;-74
2023/03/24 07:08:04;;;;;;;;;1.00;1.00;;;;;16.18;58.77;100145.31;5073161;28;45501;-71
2023/03/24 07:10:30;;;;;;;;;3.00;3.00;;;;;16.19;59.29;100150.56;5079242;28;45251;-75
2023/03/24 07:12:56;;;;;;;;;2.00;0.67;;;;;16.29;59.24;100154.97;5079448;28;45507;-73
2023/03/24 07:15:22;;;;;;;;;2.75;2.00;;;;;16.23;59.70;100169.91;5078935;28;45573;-74
2023/03/24 07:17:48;;;;;;;;;0.33;0.00;;;;;16.35;59.28;100180.44;5079109;28;45477;-76
2023/03/24 07:20:14;;;;;;;;;1.33;0.00;;;;;16.40;59.18;100199.78;5079026;28;45245;-74
2023/03/24 07:22:40;;;;;;;;;0.00;0.00;;;;;16.26;59.57;100202.41;5079263;28;45457;-75
2023/03/24 07:25:06;;;;;;;;;0.00;0.00;;;;;16.26;59.30;100196.25;5078664;28;45604;-75
2023/03/24 07:27:33;;;;;;;;;1.00;1.00;;;;;16.22;60.00;100199.78;5060791;28;45294;-74
2023/03/24 07:30:01;;;;;;;;;1.00;1.00;;;;;16.23;59.96;100206.78;5058916;28;45482;-76
2023/03/24 07:32:29;;;;;;;;;2.33;1.00;;;;;16.15;59.54;100195.38;5058766;28;45477;-71
2023/03/24 07:34:56;;;;;;;;;1.00;0.00;;;;;16.15;59.89;100209.41;5058501;28;45629;-74
2023/03/24 07:37:22;;;;;;;;;0.33;0.00;;;;;16.18;60.45;100216.47;5067229;28;45557;-77
2023/03/24 07:39:47;;;;;;;;;1.00;0.00;;;;;16.17;60.46;100218.19;5078471;28;45587;-73
2023/03/24 07:42:13;;;;;;;;;1.00;0.00;;;;;16.12;59.92;100222.59;5078760;28;45228;-69
2023/03/24 07:44:39;;;;;;;;;0.00;0.00;;;;;16.13;60.34;100248.06;5078455;28;45513;-70
2023/03/24 07:47:05;;;;;;;;;1.00;1.00;;;;;16.02;60.03;100247.16;5078460;28;45410;-76
2023/03/24 07:49:30;;;;;;;;;3.33;1.00;;;;;16.03;59.25;100257.69;5060937;28;45453;-72
2023/03/24 07:51:57;;;;;;;;;2.00;2.00;;;;;15.97;59.06;100265.56;5058460;28;45437;-75
2023/03/24 07:54:23;;;;;;;;;1.67;1.00;;;;;15.84;58.99;100248.00;5057595;28;45586;-72
2023/03/24 07:56:49;;;;;;;;;0.00;0.00;;;;;15.88;59.37;100261.16;5057726;28;45403;-75
2023/03/24 07:59:16;;;;;;;;;0.00;0.00;;;;;15.85;59.85;100274.31;5058111;28;45295;-71
2023/03/24 08:01:42;;;;;;;;;1.33;1.00;;;;;15.83;59.68;100275.19;5058031;28;45496;-74
2023/03/24 08:04:12;;;;;;;;;0.00;0.00;;;;;15.71;60.36;100287.38;5057659;28;45482;-71
2023/03/24 08:06:38;;;;;;;;;1.67;0.00;;;;;15.66;61.03;100283.00;5041351;28;45476;-69
2023/03/24 08:09:04;;;;;;;;;0.67;0.00;;;;;15.66;60.38;100289.13;5078149;28;45500;-70
2023/03/24 08:11:30;;;;;;;;;0.00;0.00;;;;;15.49;60.25;100251.28;5060357;28;45561;-71
2023/03/24 08:13:57;;;;;;;;;1.00;0.00;;;;;15.79;60.05;100291.84;5061105;28;45433;-70
2023/03/24 08:16:23;;;;;;;;;1.00;0.00;;;;;15.80;59.37;100298.91;5056697;28;45450;-71
2023/03/24 08:18:49;;;;;;;;;0.00;0.00;;;;;15.86;59.07;100301.56;5038752;28;45514;-78
2023/03/24 08:21:15;;;;;;;;;1.33;1.00;;;;;15.85;59.40;100305.03;5056827;28;45505;-71
2023/03/24 08:23:41;;;;;;;;;2.00;0.33;;;;;15.79;59.92;100297.13;5056644;28;45993;-71
2023/03/24 08:26:09;;;;;;;;;1.67;1.00;;;;;15.84;59.73;100314.72;5056771;28;45423;-71
2023/03/24 08:28:36;;;;;;;;;1.00;1.00;;;;;15.93;59.52;100324.41;5056706;28;45656;-71
2023/03/24 08:31:02;;;;;;;;;2.00;1.00;;;;;15.91;58.80;100316.47;5038679;28;45443;-73
2023/03/24 08:33:28;;;;;;;;;1.33;0.00;;;;;15.91;59.08;100327.00;5056715;28;45702;-76
2023/03/24 08:35:56;;;;;;;;;1.00;0.00;;;;;16.00;59.10;100327.97;5056293;28;45465;-72
2023/03/24 08:38:29;;;;;;;;;0.00;0.00;;;;;16.10;58.26;100342.94;5056443;28;45398;-74
2023/03/24 08:41:00;;;;;;;;;2.00;2.00;;;;;16.14;58.38;100339.44;5056082;28;45378;-71
2023/03/24 08:43:28;;;;;;;;;0.67;0.00;;;;;16.18;57.79;100325.38;5051264;28;45510;-75
2023/03/24 08:45:55;;;;;;;;;0.00;0.00;;;;;16.22;57.66;100348.25;5056406;28;45277;-73
2023/03/24 08:48:21;;;;;;;;;0.00;0.00;;;;;16.29;57.40;100364.94;5038464;28;45539;-72
2023/03/24 08:50:47;;;;;;;;;1.00;1.00;;;;;16.11;57.11;100355.22;5056636;28;45391;-73
2023/03/24 08:53:13;;;;;;;;;1.00;1.00;;;;;16.05;57.36;100355.19;5056246;28;45605;-72
2023/03/24 08:55:41;;;;;;;;;4.00;2.25;;;;;16.13;57.32;100364.00;5038438;28;45765;-75
2023/03/24 08:58:08;;;;;;;;;1.00;1.00;;;;;16.07;57.16;100342.91;5053210;28;45519;-70
2023/03/24 09:00:34;;;;;;;;;0.67;0.00;;;;;16.21;57.20;100357.00;5056755;28;45621;-71
2023/03/24 09:02:59;;;;;;;;;1.00;0.00;;;;;16.22;56.84;100355.28;5056985;28;45347;-71
2023/03/24 09:05:26;;;;;;;;;3.00;2.75;;;;;16.39;56.39;100377.28;5057022;28;45359;-73
2023/03/24 09:07:52;;;;;;;;;0.00;0.00;;;;;16.44;56.19;100364.13;5068639;28;45426;-72
2023/03/24 09:10:18;;;;;;;;;0.67;0.00;;;;;16.36;56.05;100356.19;5077415;28;45560;-69
2023/03/24 09:12:44;;;;;;;;;1.33;0.00;;;;;16.21;56.60;100366.69;5076633;28;46157;-71
2023/03/24 09:15:11;;;;;;;;;2.67;1.00;;;;;16.29;56.04;100359.69;5075621;28;45562;-71
2023/03/24 09:17:38;;;;;;;;;1.67;0.33;;;;;16.26;56.30;100365.81;5055453;28;45721;-71
2023/03/24 09:20:09;;;;;;;;;1.00;0.00;;;;;16.37;56.28;100367.63;5056545;28;45443;-77
2023/03/24 09:22:43;;;;;;;;;0.00;0.00;;;;;16.44;56.34;100378.19;5052887;28;45555;-73
2023/03/24 09:25:15;;;;;;;;;1.33;1.00;;;;;16.54;56.09;100402.84;5055933;28;45402;-75
2023/03/24 09:27:41;;;;;;;;;1.00;1.00;;;;;16.55;55.68;100409.84;5056171;28;45314;-77
2023/03/24 09:30:08;;;;;;;;;1.00;1.00;;;;;16.58;55.84;100415.16;5056104;28;45629;-73
2023/03/24 09:32:34;;;;;;;;;1.33;0.33;;;;;16.48;56.13;100430.06;5038043;28;46769;-72
2023/03/24 09:35:00;;;;;;;;;0.33;0.00;;;;;16.42;56.23;100411.56;5055560;28;45620;-71
2023/03/24 09:37:31;;;;;;;;;1.25;1.00;;;;;16.40;56.57;100444.09;5055425;28;45492;-73
2023/03/24 09:39:58;;;;;;;;;1.00;1.00;;;;;16.33;56.79;100451.06;5054054;28;45400;-71
2023/03/24 09:42:27;;;;;;;;;2.50;1.50;;;;;16.36;57.01;100440.56;5055546;28;45429;-71
2023/03/24 09:44:56;;;;;;;;;1.67;1.33;;;;;16.40;56.15;100437.06;5053077;28;45543;-75
2023/03/24 09:47:34;;;;;;;;;2.00;1.00;;;;;16.52;56.41;100430.09;5055769;28;45688;-71
2023/03/24 09:50:05;;;;;;;;;2.00;1.00;;;;;16.48;56.13;100430.06;5054343;28;45447;-77
2023/03/24 09:52:44;;;;;;;;;2.00;1.00;;;;;16.43;56.38;100418.63;5055395;28;45497;-77
2023/03/24 09:55:18;;;;;;;;;1.00;1.00;;;;;16.42;56.58;100437.94;5055392;28;45473;-76
2023/03/24 09:57:47;;;;;;;;;1.00;0.33;;;;;16.42;56.92;100444.97;5055529;28;45508;-74
2023/03/24 10:00:18;;;;;;;;;2.00;1.00;;;;;16.36;56.68;100455.50;5053118;28;45498;-73
2023/03/24 10:02:44;;;;;;;;;0.00;0.00;;;;;16.32;56.92;100474.81;5055103;28;45409;-74
2023/03/24 10:05:42;;;;;;;;;0.67;0.67;;;;;16.22;56.92;100471.25;5037535;28;45438;-73
2023/03/24 10:08:35;;;;;;;;;1.00;1.00;;;;;16.23;57.52;100473.00;5051686;28;45550;-76
2023/03/24 10:11:32;;;;;;;;;3.00;0.67;;;;;16.28;58.12;100481.81;5041535;28;45485;-75
2023/03/24 10:14:27;;;;;;;;;0.00;0.00;;;;;16.27;58.72;100480.94;5059530;28;45393;-77
2023/03/24 10:17:19;;;;;;;;;0.00;0.00;;;;;16.12;59.53;100464.16;5056576;28;45548;-77
2023/03/24 10:19:59;;;;;;;;;0.00;0.00;;;;;16.06;61.37;100467.63;5057411;28;45494;-76
2023/03/24 10:22:50;;;;;;;;;7.25;6.25;;;;;16.00;61.32;100476.38;5057827;28;45628;-76
2023/03/24 10:25:21;;;;;;;;;29.50;26.50;;;;;16.02;61.07;100473.75;5056670;28;45406;-76
2023/03/24 10:27:57;;;;;;;;;2.00;1.00;;;;;15.97;60.69;100473.72;5059315;28;45418;-76
2023/03/24 10:30:27;;;;;;;;;4.50;4.00;;;;;15.83;61.77;100475.38;5057772;28;45783;-78
2023/03/24 10:32:56;;;;;;;;;11.25;11.25;;;;;15.82;61.00;100481.53;5057797;28;45442;-79
2023/03/24 10:35:35;;;;;;;;;2.25;2.00;;;;;15.87;60.85;100477.16;5038038;28;45548;-75
2023/03/24 10:38:12;;;;;;;;;3.50;1.00;;;;;15.99;60.48;100477.22;5058603;28;45398;-77
2023/03/24 10:40:40;;;;;;;;;1.00;1.00;;;;;16.07;60.08;100486.06;5059357;28;45427;-81
2023/03/24 10:43:06;;;;;;;;;5.75;5.00;;;;;16.13;58.49;100479.97;5059680;28;45328;-81
2023/03/24 10:45:33;;;;;;;;;2.00;1.00;;;;;16.14;58.38;100497.53;5058855;28;45661;-75
2023/03/24 10:48:01;;;;;;;;;4.00;3.00;;;;;16.16;59.27;100489.66;5058683;28;45484;-82
2023/03/24 10:50:29;;;;;;;;;0.50;0.00;;;;;16.18;59.27;100501.97;5058056;28;45528;-74
2023/03/24 10:52:56;;;;;;;;;1.00;1.00;;;;;16.23;59.08;100499.34;5057582;28;45471;-76
2023/03/24 10:55:30;;;;;;;;;1.33;1.00;;;;;16.23;58.87;100491.44;5058902;28;45990;-73
2023/03/24 10:57:58;;;;;;;;;2.00;1.00;;;;;16.27;59.16;100499.41;5058178;28;45408;-80
2023/03/24 11:00:30;;;;;;;;;1.00;0.67;;;;;16.35;58.99;100498.53;5057029;28;46250;-78
2023/03/24 11:03:11;;;;;;;;;1.00;1.00;;;;;16.37;58.34;100510.84;5056277;28;45484;-79
2023/03/24 11:05:40;;;;;;;;;3.00;1.33;;;;;16.30;58.72;100503.78;5056078;28;46163;-76
2023/03/24 11:08:27;;;;;;;;;1.00;1.00;;;;;16.32;59.00;100507.31;5056789;28;45424;-78
2023/03/24 11:10:54;;;;;;;;;0.00;0.00;;;;;16.41;58.84;100517.94;5057886;28;45423;-78
2023/03/24 11:13:27;;;;;;;;;1.67;1.33;;;;;16.34;58.17;100510.84;5057821;28;45489;-73
2023/03/24 11:16:10;;;;;;;;;1.00;1.00;;;;;16.40;58.63;100523.19;5052880;28;46450;-77
2023/03/24 11:18:37;;;;;;;;;2.00;1.33;;;;;16.25;58.33;100518.69;5056385;28;45443;-72
2023/03/24 11:21:05;;;;;;;;;5.33;3.67;;;;;16.20;59.96;100523.94;5056356;28;45410;-75
2023/03/24 11:23:41;;;;;;;;;9.50;8.50;;;;;16.15;59.24;100545.84;5056847;28;45637;-72
2023/03/24 11:26:22;;;;;;;;;2.67;1.33;;;;;16.22;58.91;100553.81;5056806;28;45427;-73
2023/03/24 11:28:54;;;;;;;;;3.00;3.00;;;;;16.16;59.17;100563.44;5056808;28;45367;-72
2023/03/24 11:31:32;;;;;;;;;2.00;1.67;;;;;16.06;59.58;100562.50;5055687;28;45407;-76
2023/03/24 11:34:15;;;;;;;;;2.00;1.67;;;;;16.10;58.63;100561.66;5054834;28;45624;-78
2023/03/24 11:37:07;;;;;;;;;2.00;2.00;;;;;16.05;58.26;100579.16;5054806;28;46551;-75
2023/03/24 11:39:33;;;;;;;;;1.00;1.00;;;;;16.00;58.35;100573.88;5056306;28;45600;-76
2023/03/24 11:42:15;;;;;;;;;2.00;1.00;;;;;15.95;58.99;100574.69;5056223;28;45482;-72
2023/03/24 11:44:44;;;;;;;;;2.00;2.00;;;;;16.02;59.31;100581.78;5055173;28;45608;-70
2023/03/24 11:47:26;;;;;;;;;1.33;1.00;;;;;15.98;60.05;100598.44;5040741;28;45827;-69